Главная страница
METAR-TAF:

METAR-TAF

Аэропорты :

Kake, Аляска, США

Кейк

широта: 56-57N, долгота: 133-54W, высота над уровнем моря: 52 м

Текущие метеонаблюдения

Эта сводка был подготовлена 2 часа и 23 минут назад, в 01:56 UTC
Ветер 12 Узел от восточно-юго-восточный с порывами до 15 Узел
Температура 1°C
Влажность 100%
Давление 1020 hPa
Видимость: 16.1 км
Рассеянная облачность на высоте 1300 фута
Сплошная облачность на высоте 1900 фута

METAR: PAFE 230156Z AUTO 11012G15KT 10SM BKN013 OVC019 01/01 A3011 RMK AO2 SLP209 T00110006 FZRANO

Время: 19:19 (04:19 UTC)


TAF: отсутствует

Метеонаблюдения и прогнозы для более 4000 аэропортов (сводки METAR и TAF).

Имеющиеся станции представлены на карте желтыми и красными точками.

Чтобы увидеть название станции, наведите на нее мышь.

Затем щелкните, чтобы увидеть метеонаблюдения и метеопрогнозы.

Управление картой: чтобы увеличить масштаб, щелкните зеленые кнопки с черным крестиком; чтобы уменьшить масштаб, щелкните зеленую кнопку с тире; для просмотра соседних карт щелкайте зеленые стрелки.


METAR-TAF: